Time;durP1;ratioP1;P1;durP2;ratioP2;P2;SDS_P1;SDS_P2;PMS_P1;PMS_P2;Temp;Humidity;BMP_temperature;BMP_pressure;BME280_temperature;BME280_humidity;BME280_pressure;Samples;Min_cycle;Max_cycle;Signal;HPM_P1;HPM_P2
2021/12/07 00:00:19;;;;;;;27.90;16.17;;;2.40;99.90;;;;;;5016033;28;20505;-74
2021/12/07 00:02:46;;;;;;;32.03;17.48;;;2.40;99.90;;;;;;4998243;28;20050;-74
2021/12/07 00:05:12;;;;;;;21.95;15.05;;;2.30;99.90;;;;;;4998423;28;20138;-74
2021/12/07 00:07:39;;;;;;;29.63;17.05;;;2.30;99.90;;;;;;4998047;28;20483;-74
2021/12/07 00:10:06;;;;;;;29.77;17.77;;;2.30;99.90;;;;;;5015354;28;20050;-74
2021/12/07 00:12:37;;;;;;;27.65;15.90;;;2.30;99.90;;;;;;5015660;28;20053;-74
2021/12/07 00:15:04;;;;;;;31.15;17.70;;;2.30;99.90;;;;;;5015393;28;20073;-74
2021/12/07 00:17:31;;;;;;;24.58;15.73;;;2.30;99.90;;;;;;5015623;28;20112;-74
2021/12/07 00:19:59;;;;;;;21.98;14.65;;;2.30;99.90;;;;;;5015261;28;20049;-74
2021/12/07 00:22:26;;;;;;;25.63;16.25;;;2.30;99.90;;;;;;5015587;28;20093;-74
2021/12/07 00:24:52;;;;;;;21.73;15.10;;;2.30;99.90;;;;;;4997711;28;20096;-74
2021/12/07 00:27:17;;;;;;;25.87;16.17;;;2.30;99.90;;;;;;5015405;28;20183;-74
2021/12/07 00:29:43;;;;;;;25.07;15.87;;;2.30;99.90;;;;;;4997613;28;20054;-74
2021/12/07 00:37:33;;;;;;;29.83;17.75;;;2.30;99.90;;;;;;4974644;28;20052;-74
2021/12/07 00:40:06;;;;;;;31.20;16.42;;;2.40;99.90;;;;;;5014817;28;20077;-74
2021/12/07 00:42:32;;;;;;;33.03;16.50;;;2.30;99.90;;;;;;5015271;28;20402;-74
2021/12/07 00:44:59;;;;;;;23.17;14.70;;;2.30;99.90;;;;;;5014779;28;20046;-74
2021/12/07 00:47:25;;;;;;;21.05;13.38;;;2.30;99.90;;;;;;5015019;28;20060;-74
2021/12/07 00:49:51;;;;;;;25.10;15.30;;;2.30;99.90;;;;;;5014558;28;20046;-74
2021/12/07 00:52:16;;;;;;;30.00;15.60;;;2.20;99.90;;;;;;5014400;28;20042;-74
2021/12/07 00:54:42;;;;;;;25.20;15.13;;;2.20;99.90;;;;;;4981240;28;20050;-74
2021/12/07 00:57:08;;;;;;;21.75;14.35;;;2.20;99.90;;;;;;5014517;28;20048;-74
2021/12/07 00:59:34;;;;;;;31.20;16.73;;;2.20;99.90;;;;;;5014822;28;20042;-74
2021/12/07 01:02:00;;;;;;;27.13;14.57;;;2.20;99.90;;;;;;5014524;28;20100;-74
2021/12/07 01:04:28;;;;;;;23.77;14.63;;;2.20;99.90;;;;;;5014738;28;20305;-74
2021/12/07 01:09:32;;;;;;;26.60;14.75;;;2.30;99.90;;;;;;5014609;28;20538;-75
2021/12/07 01:25:52;;;;;;;28.77;15.20;;;2.40;99.90;;;;;;5014269;28;20115;-74
2021/12/07 01:28:30;;;;;;;21.77;14.57;;;2.50;99.90;;;;;;5014419;28;20107;-74
2021/12/07 01:31:10;;;;;;;28.27;15.43;;;2.40;99.90;;;;;;4996793;28;20076;-74
2021/12/07 01:50:33;;;;;;;19.65;13.02;;;;;;;;;;5013379;28;20049;-74
2021/12/07 01:53:06;;;;;;;24.67;13.60;;;;;;;;;;5013010;28;20521;-75
2021/12/07 02:01:01;;;;;;;20.25;13.85;;;;;;;;;;5013565;28;20046;-74
2021/12/07 02:03:28;;;;;;;20.25;13.55;;;;;;;;;;5013675;28;20049;-74
2021/12/07 02:05:54;;;;;;;23.52;14.45;;;;;;;;;;5013194;28;20153;-74
2021/12/07 02:08:21;;;;;;;19.40;12.77;;;;;;;;;;5013732;28;20050;-74
2021/12/07 02:10:48;;;;;;;18.20;13.48;;;;;;;;;;5013609;28;20085;-75
2021/12/07 02:14:16;;;;;;;20.63;14.27;;;;;;;;;;5013275;28;20061;-74
2021/12/07 02:16:12;;;;;;;20.02;13.07;;;;;;;;;;4995626;28;20053;-74
2021/12/07 02:18:38;;;;;;;17.88;12.57;;;;;;;;;;5013494;28;20049;-75
2021/12/07 02:21:21;;;;;;;22.02;14.85;;;;;;;;;;5013073;28;20050;-74
2021/12/07 02:23:47;;;;;;;22.60;14.32;;;;;;;;;;5013319;28;20046;-74
2021/12/07 02:26:14;;;;;;;21.13;13.30;;;;;;;;;;5013153;28;20053;-74
2021/12/07 02:28:40;;;;;;;23.08;14.68;;;;;;;;;;5013552;28;20525;-74
2021/12/07 02:31:07;;;;;;;19.08;13.57;;;;;;;;;;4995781;28;20136;-74
2021/12/07 02:33:34;;;;;;;25.10;14.93;;;;;;;;;;4995800;28;20057;-73
2021/12/07 02:36:00;;;;;;;25.48;14.20;;;;;;;;;;5012714;28;20458;-73
2021/12/07 02:38:26;;;;;;;22.92;15.23;;;2.70;99.90;;;;;;5013267;28;20052;-73
2021/12/07 02:40:52;;;;;;;19.47;13.03;;;2.60;99.90;;;;;;5012995;28;20465;-74
2021/12/07 02:43:17;;;;;;;19.13;11.90;;;2.60;99.90;;;;;;4995445;28;20103;-74
2021/12/07 02:45:44;;;;;;;16.77;11.60;;;2.60;99.90;;;;;;5013270;28;20054;-74
2021/12/07 02:48:10;;;;;;;21.17;13.05;;;2.50;99.90;;;;;;5012788;28;20050;-74
2021/12/07 02:50:36;;;;;;;24.55;14.82;;;2.50;99.90;;;;;;5012941;28;20053;-74
2021/12/07 02:53:02;;;;;;;30.13;16.07;;;2.50;99.90;;;;;;5012770;28;20046;-75
2021/12/07 02:55:30;;;;;;;24.58;14.52;;;2.60;99.90;;;;;;5013011;28;20057;-74
2021/12/07 02:57:56;;;;;;;21.73;14.23;;;2.60;99.90;;;;;;4995654;28;20497;-74
2021/12/07 03:00:27;;;;;;;20.83;13.97;;;2.60;99.90;;;;;;5012722;28;20038;-74
2021/12/07 03:03:01;;;;;;;21.55;13.10;;;2.50;99.90;;;;;;4995703;28;20054;-74
2021/12/07 03:26:38;;;;;;;21.60;13.48;;;2.40;99.90;;;;;;5016768;28;20053;-74
2021/12/07 03:29:04;;;;;;;22.00;13.17;;;2.40;99.90;;;;;;5016224;28;20058;-74
2021/12/07 03:31:30;;;;;;;19.67;12.98;;;2.40;99.90;;;;;;5016283;28;20133;-74
2021/12/07 03:33:58;;;;;;;19.33;12.47;;;2.40;99.90;;;;;;5016437;28;20077;-74
2021/12/07 03:36:25;;;;;;;24.05;14.75;;;2.40;99.90;;;;;;5016139;28;20335;-74
2021/12/07 03:38:51;;;;;;;20.63;13.32;;;2.40;99.90;;;;;;5016243;28;20049;-74
2021/12/07 03:41:17;;;;;;;24.70;13.90;;;2.40;99.90;;;;;;5016121;28;20042;-74
2021/12/07 03:43:44;;;;;;;22.15;12.90;;;2.40;99.90;;;;;;4999049;28;20638;-74
2021/12/07 03:46:10;;;;;;;25.40;14.43;;;2.40;99.90;;;;;;5015988;28;20120;-74
2021/12/07 03:48:37;;;;;;;24.57;14.53;;;2.50;99.90;;;;;;5016263;28;20050;-74
2021/12/07 03:51:03;;;;;;;23.85;13.77;;;2.50;99.90;;;;;;4998649;28;20084;-74
2021/12/07 03:53:29;;;;;;;21.58;13.23;;;2.50;99.90;;;;;;5016102;28;20081;-74
2021/12/07 03:55:56;;;;;;;25.47;14.30;;;2.40;99.90;;;;;;5016128;28;20081;-74
2021/12/07 03:58:22;;;;;;;23.00;13.70;;;2.50;99.90;;;;;;5015181;28;20513;-74
2021/12/07 04:00:48;;;;;;;21.07;12.93;;;2.40;99.90;;;;;;5015947;28;20128;-74
2021/12/07 04:03:16;;;;;;;26.83;14.13;;;2.50;99.90;;;;;;5015606;28;20049;-75
2021/12/07 04:05:45;;;;;;;24.55;14.10;;;2.50;99.90;;;;;;5015743;28;20107;-74
2021/12/07 04:08:13;;;;;;;26.48;14.10;;;2.50;99.90;;;;;;5015536;28;20140;-74
2021/12/07 04:10:39;;;;;;;20.35;13.07;;;2.50;99.90;;;;;;4998462;28;20049;-74
2021/12/07 04:13:05;;;;;;;22.63;13.60;;;2.40;99.90;;;;;;5015920;28;20069;-74
2021/12/07 04:15:31;;;;;;;26.08;14.95;;;2.40;99.90;;;;;;5015525;28;20049;-74
2021/12/07 04:17:57;;;;;;;26.87;13.67;;;2.40;99.90;;;;;;5015561;28;20527;-74
2021/12/07 04:20:23;;;;;;;30.67;14.27;;;2.30;99.90;;;;;;5015364;28;20058;-74
2021/12/07 04:22:49;;;;;;;21.63;11.90;;;2.40;99.90;;;;;;5015434;28;20509;-74
2021/12/07 04:25:17;;;;;;;21.97;12.57;;;2.40;99.90;;;;;;5013780;28;20064;-74
2021/12/07 04:27:45;;;;;;;32.80;14.90;;;2.40;99.90;;;;;;5015323;28;20277;-74
2021/12/07 04:30:19;;;;;;;20.88;11.93;;;2.40;99.90;;;;;;5014961;28;20042;-74
2021/12/07 04:32:45;;;;;;;22.38;11.18;;;2.30;99.90;;;;;;5015418;28;20050;-74
2021/12/07 04:35:12;;;;;;;25.03;13.40;;;2.30;99.90;;;;;;5015024;28;20129;-74
2021/12/07 04:37:39;;;;;;;31.30;13.38;;;2.30;99.90;;;;;;5015267;28;20056;-74
2021/12/07 04:40:07;;;;;;;26.85;12.23;;;2.30;99.90;;;;;;4997839;28;20124;-74
2021/12/07 04:42:33;;;;;;;31.63;12.90;;;2.30;99.90;;;;;;5014835;28;20065;-74
2021/12/07 04:45:03;;;;;;;24.70;12.93;;;2.30;99.90;;;;;;5015188;28;20364;-74
2021/12/07 04:47:52;;;;;;;27.35;11.88;;;2.30;99.90;;;;;;5014848;28;20049;-74
2021/12/07 04:58:13;;;;;;;25.10;11.35;;;2.30;99.90;;;;;;5014692;28;20053;-74
2021/12/07 05:00:38;;;;;;;22.23;11.60;;;2.30;99.90;;;;;;4997602;28;20045;-74
2021/12/07 05:03:09;;;;;;;24.53;10.50;;;2.30;99.90;;;;;;5014746;28;20085;-74
2021/12/07 05:05:41;;;;;;;23.13;10.32;;;2.30;99.90;;;;;;4996880;28;20414;-74
2021/12/07 05:08:11;;;;;;;19.70;10.07;;;2.30;99.90;;;;;;5015084;28;20057;-74
2021/12/07 05:11:13;;;;;;;21.90;9.35;;;2.30;99.90;;;;;;5014451;28;20045;-74
2021/12/07 05:13:29;;;;;;;22.15;9.50;;;2.30;99.90;;;;;;4996206;28;20387;-74
2021/12/07 05:16:08;;;;;;;25.45;10.25;;;2.30;99.90;;;;;;5014583;28;20050;-73
2021/12/07 05:39:52;;;;;;;20.92;9.80;;;;;;;;;;5014281;28;20111;-74
2021/12/07 05:42:20;;;;;;;21.77;9.35;;;;;;;;;;5013622;28;20054;-74
2021/12/07 05:44:46;;;;;;;18.92;9.05;;;;;;;;;;5013887;28;20053;-74
2021/12/07 05:47:11;;;;;;;21.35;8.00;;;2.90;99.90;;;;;;5014004;28;20402;-74
2021/12/07 05:49:37;;;;;;;23.13;8.50;;;;;;;;;;5013635;28;20105;-74
2021/12/07 05:52:04;;;;;;;26.63;8.52;;;2.60;99.90;;;;;;5013769;28;20053;-73
2021/12/07 05:54:30;;;;;;;19.77;8.35;;;2.70;99.90;;;;;;5013520;28;20046;-74
2021/12/07 05:56:55;;;;;;;23.98;7.68;;;2.70;99.90;;;;;;5013696;28;20405;-74
2021/12/07 05:59:21;;;;;;;22.67;8.17;;;2.70;99.90;;;;;;5013516;28;20132;-74
2021/12/07 06:01:47;;;;;;;24.27;8.13;;;2.60;99.90;;;;;;5013972;28;20046;-74
2021/12/07 06:04:13;;;;;;;25.90;9.37;;;2.60;99.90;;;;;;5013783;28;20049;-74
2021/12/07 06:06:39;;;;;;;26.75;9.25;;;2.60;99.90;;;;;;5013257;28;20057;-74
2021/12/07 06:09:05;;;;;;;24.67;10.00;;;2.70;99.90;;;;;;4996485;28;20457;-73
2021/12/07 06:11:31;;;;;;;20.67;8.77;;;2.60;99.90;;;;;;5013130;28;20046;-74
2021/12/07 06:13:57;;;;;;;24.60;9.60;;;2.60;99.90;;;;;;5013420;28;20429;-73
2021/12/07 06:16:24;;;;;;;29.17;9.83;;;2.60;99.90;;;;;;5013583;28;20122;-74
2021/12/07 06:18:50;;;;;;;24.63;10.55;;;2.60;99.90;;;;;;5013437;28;20088;-74
2021/12/07 06:21:16;;;;;;;27.50;10.65;;;2.60;99.90;;;;;;5013430;28;20041;-74
2021/12/07 06:23:42;;;;;;;27.75;10.27;;;2.60;99.90;;;;;;5012995;28;20045;-71
2021/12/07 06:26:08;;;;;;;31.10;11.20;;;2.60;99.90;;;;;;5013335;28;20042;-73
2021/12/07 06:28:34;;;;;;;27.42;10.25;;;2.70;99.90;;;;;;5013059;28;20046;-73
2021/12/07 06:31:00;;;;;;;29.63;11.00;;;2.60;99.90;;;;;;5013199;28;20049;-71
2021/12/07 06:33:27;;;;;;;26.20;10.90;;;2.60;99.90;;;;;;5012953;28;20038;-72
2021/12/07 06:35:57;;;;;;;24.77;9.43;;;2.60;99.90;;;;;;5013306;28;20060;-72
2021/12/07 06:38:28;;;;;;;25.77;9.00;;;2.60;99.90;;;;;;5012839;28;20415;-73
2021/12/07 06:40:55;;;;;;;27.17;11.13;;;2.50;99.90;;;;;;5013369;28;20383;-79
2021/12/07 06:43:21;;;;;;;28.73;9.85;;;2.50;99.90;;;;;;5013087;28;20386;-78
2021/12/07 06:45:47;;;;;;;30.95;10.38;;;2.50;99.90;;;;;;5013067;28;20109;-73
2021/12/07 06:48:13;;;;;;;26.80;10.63;;;2.40;99.90;;;;;;5012526;28;20050;-73
2021/12/07 06:50:39;;;;;;;27.02;10.75;;;2.40;99.90;;;;;;4995214;28;20777;-73
2021/12/07 06:53:05;;;;;;;29.63;11.17;;;2.40;99.90;;;;;;4995422;28;20088;-73
2021/12/07 06:55:31;;;;;;;29.97;10.93;;;2.40;99.90;;;;;;4995032;28;20114;-73
2021/12/07 06:57:57;;;;;;;27.83;11.20;;;2.50;99.90;;;;;;5013072;28;20108;-73
2021/12/07 07:00:23;;;;;;;25.10;10.77;;;2.60;99.90;;;;;;5013223;28;20799;-73
2021/12/07 07:02:48;;;;;;;27.85;10.77;;;2.60;99.90;;;;;;5013161;28;20056;-73
2021/12/07 07:05:15;;;;;;;27.33;10.63;;;2.50;99.90;;;;;;5013362;28;20042;-73
2021/12/07 07:07:42;;;;;;;30.90;11.20;;;2.50;99.90;;;;;;4995270;28;20057;-73
2021/12/07 07:10:17;;;;;;;30.00;11.32;;;2.40;99.90;;;;;;5013061;28;20056;-73
2021/12/07 07:12:44;;;;;;;28.77;12.10;;;2.40;99.90;;;;;;5013227;28;20505;-73
2021/12/07 07:15:10;;;;;;;23.75;9.70;;;2.40;99.90;;;;;;5013203;28;20449;-73
2021/12/07 07:17:36;;;;;;;29.45;10.63;;;2.40;99.90;;;;;;5012889;28;20038;-74
2021/12/07 07:20:04;;;;;;;34.67;12.27;;;2.40;99.90;;;;;;5012786;28;20373;-73
2021/12/07 07:22:30;;;;;;;33.25;12.13;;;2.30;99.90;;;;;;5012375;28;20050;-73
2021/12/07 07:24:56;;;;;;;24.00;10.60;;;2.40;99.90;;;;;;4994986;28;20046;-73
2021/12/07 07:27:22;;;;;;;26.57;10.63;;;2.40;99.90;;;;;;4995799;28;20382;-73
2021/12/07 07:29:47;;;;;;;28.37;10.90;;;2.40;99.90;;;;;;5012699;28;20054;-73
2021/12/07 07:32:13;;;;;;;36.90;14.53;;;2.40;99.90;;;;;;5012839;28;20050;-73
2021/12/07 07:34:39;;;;;;;36.50;16.93;;;2.30;99.90;;;;;;4995113;28;20046;-73
2021/12/07 07:37:05;;;;;;;42.93;18.60;;;2.30;99.90;;;;;;5013321;28;20137;-73
2021/12/07 07:39:32;;;;;;;40.38;17.35;;;2.30;99.90;;;;;;5012642;28;20352;-73
2021/12/07 07:41:58;;;;;;;32.45;16.50;;;2.30;99.90;;;;;;4995505;28;20061;-73
2021/12/07 07:44:23;;;;;;;32.38;18.15;;;2.30;99.90;;;;;;5012686;28;20057;-73
2021/12/07 07:46:49;;;;;;;47.50;19.50;;;2.30;99.90;;;;;;4994999;28;20100;-73
2021/12/07 07:49:15;;;;;;;40.47;17.67;;;2.20;99.90;;;;;;5012835;28;20085;-73
2021/12/07 07:51:41;;;;;;;51.80;21.00;;;2.20;99.90;;;;;;5012485;28;20050;-73
2021/12/07 07:54:07;;;;;;;40.63;18.05;;;2.20;99.90;;;;;;5012616;28;20042;-73
2021/12/07 07:56:34;;;;;;;36.23;16.00;;;2.10;99.90;;;;;;5012406;28;20391;-73
2021/12/07 07:59:00;;;;;;;27.15;13.55;;;;;;;;;;5012953;28;20050;-73
2021/12/07 08:01:31;;;;;;;37.38;14.60;;;2.10;99.90;;;;;;5015466;28;20383;-73
2021/12/07 08:03:58;;;;;;;33.50;13.52;;;2.00;99.90;;;;;;5016151;28;20385;-73
2021/12/07 08:06:24;;;;;;;38.63;13.82;;;2.00;99.90;;;;;;5016096;28;20058;-72
2021/12/07 08:08:50;;;;;;;41.00;12.82;;;2.10;99.90;;;;;;5015859;28;20057;-73
2021/12/07 08:11:16;;;;;;;27.25;10.93;;;2.10;99.90;;;;;;5015972;28;20042;-73
2021/12/07 08:13:42;;;;;;;32.03;11.40;;;2.10;99.90;;;;;;4998194;28;20042;-73
2021/12/07 08:16:15;;;;;;;24.20;9.98;;;2.10;99.90;;;;;;4999221;28;20096;-73
2021/12/07 08:18:47;;;;;;;28.90;10.77;;;2.10;99.90;;;;;;5015738;28;20391;-73
2021/12/07 08:21:14;;;;;;;23.27;9.43;;;2.10;99.90;;;;;;4998627;28;20052;-73
2021/12/07 08:23:41;;;;;;;27.65;9.48;;;2.10;99.90;;;;;;5015448;28;20132;-73
2021/12/07 08:26:08;;;;;;;30.08;9.95;;;2.00;99.90;;;;;;5015736;28;20057;-73
2021/12/07 08:28:34;;;;;;;25.23;9.25;;;2.10;99.90;;;;;;5015213;28;20490;-73
2021/12/07 08:31:01;;;;;;;29.33;8.75;;;2.10;99.90;;;;;;4998346;28;20133;-73
2021/12/07 08:33:27;;;;;;;30.67;9.85;;;2.10;99.90;;;;;;5015514;28;20156;-73
2021/12/07 08:35:53;;;;;;;20.43;8.00;;;2.10;99.90;;;;;;5015261;28;20506;-73
2021/12/07 08:38:20;;;;;;;21.25;7.43;;;2.10;99.90;;;;;;4998112;28;20364;-73
2021/12/07 08:40:53;;;;;;;19.85;6.60;;;2.10;99.90;;;;;;5015093;28;20057;-73
2021/12/07 08:43:26;;;;;;;21.33;7.03;;;2.10;99.90;;;;;;5015335;28;20092;-73
2021/12/07 08:45:54;;;;;;;20.10;7.05;;;2.20;99.90;;;;;;5015117;28;20136;-73
2021/12/07 08:48:21;;;;;;;24.63;6.60;;;2.20;99.90;;;;;;5015288;28;20048;-73
2021/12/07 08:50:47;;;;;;;24.48;6.55;;;2.20;99.90;;;;;;5014853;28;20038;-73
2021/12/07 08:53:16;;;;;;;23.80;5.72;;;2.20;99.90;;;;;;5014744;28;20592;-73
2021/12/07 09:01:33;;;;;;;21.55;5.28;;;2.40;99.90;;;;;;4953959;29;20150;-73
2021/12/07 09:03:59;;;;;;;17.90;4.82;;;2.40;99.90;;;;;;5001626;28;20064;-73
2021/12/07 09:06:26;;;;;;;18.50;4.47;;;2.40;99.90;;;;;;5014703;28;20398;-73
2021/12/07 09:08:52;;;;;;;19.45;5.05;;;2.50;99.90;;;;;;5014749;28;20053;-74
2021/12/07 09:11:19;;;;;;;22.43;5.03;;;2.50;99.90;;;;;;4996725;28;20363;-73
2021/12/07 09:13:45;;;;;;;18.38;5.65;;;2.50;99.90;;;;;;5014509;28;20050;-74
2021/12/07 09:16:14;;;;;;;18.95;4.60;;;2.60;99.90;;;;;;5014738;28;20127;-73
2021/12/07 09:18:41;;;;;;;17.08;5.05;;;3.10;99.90;;;;;;5014558;28;20092;-73
2021/12/07 09:21:08;;;;;;;16.42;5.50;;;2.60;99.90;;;;;;5014536;28;20100;-73
2021/12/07 09:23:34;;;;;;;30.13;5.38;;;2.70;99.90;;;;;;4964620;28;20058;-73
2021/12/07 09:26:01;;;;;;;24.98;5.40;;;2.70;99.90;;;;;;5014277;28;20124;-73
2021/12/07 09:28:27;;;;;;;18.95;4.40;;;2.70;99.90;;;;;;5014199;28;20490;-73
2021/12/07 09:30:53;;;;;;;19.53;5.27;;;2.70;99.90;;;;;;5014344;28;20060;-74
2021/12/07 09:33:23;;;;;;;19.75;6.00;;;2.80;99.90;;;;;;5014146;28;20108;-73
2021/12/07 09:35:49;;;;;;;24.58;5.43;;;2.80;99.90;;;;;;5014274;28;20046;-74
2021/12/07 09:38:15;;;;;;;23.98;5.40;;;2.90;99.90;;;;;;5014361;28;20048;-73
2021/12/07 09:40:42;;;;;;;21.88;5.43;;;2.90;99.90;;;;;;5013896;28;20046;-74
2021/12/07 09:43:10;;;;;;;20.77;5.00;;;2.90;99.90;;;;;;5014411;28;20111;-73
2021/12/07 09:45:36;;;;;;;19.65;5.70;;;3.00;99.90;;;;;;5013929;28;20500;-73
2021/12/07 09:48:04;;;;;;;26.33;5.72;;;3.20;99.90;;;;;;5013967;28;20046;-73
2021/12/07 09:50:31;;;;;;;20.75;5.75;;;3.20;99.90;;;;;;5014562;28;20037;-73
2021/12/07 09:52:57;;;;;;;23.45;6.10;;;3.30;99.90;;;;;;5013870;28;20061;-74
2021/12/07 09:55:25;;;;;;;14.70;5.10;;;3.30;99.90;;;;;;5014045;28;20049;-73
2021/12/07 09:57:52;;;;;;;22.85;5.95;;;3.30;99.90;;;;;;5013815;28;20081;-74
2021/12/07 10:00:21;;;;;;;19.17;5.30;;;3.30;99.90;;;;;;5014007;28;20490;-73
2021/12/07 10:02:47;;;;;;;19.05;5.25;;;3.30;99.90;;;;;;5013700;28;20056;-74
2021/12/07 10:05:16;;;;;;;19.42;4.78;;;3.30;99.90;;;;;;5013809;28;20050;-73
2021/12/07 10:07:42;;;;;;;26.23;5.57;;;3.30;99.90;;;;;;5013573;28;20430;-74
2021/12/07 10:10:18;;;;;;;24.27;5.63;;;3.30;99.90;;;;;;4996756;28;20057;-73
2021/12/07 10:12:44;;;;;;;21.50;5.38;;;3.30;99.90;;;;;;5013629;28;20049;-74
2021/12/07 10:15:10;;;;;;;28.30;5.30;;;3.30;99.90;;;;;;4979982;28;20506;-74
2021/12/07 10:17:37;;;;;;;17.38;4.88;;;3.20;99.90;;;;;;5013707;28;20050;-73
2021/12/07 10:20:41;;;;;;;17.25;6.05;;;3.20;99.90;;;;;;5013389;28;20058;-73
2021/12/07 10:23:16;;;;;;;22.77;5.95;;;3.30;99.90;;;;;;4995261;28;20065;-73
2021/12/07 10:25:46;;;;;;;20.52;5.28;;;3.30;99.90;;;;;;5013577;28;20057;-73
2021/12/07 10:28:27;;;;;;;18.95;5.53;;;3.20;99.90;;;;;;5013834;28;20046;-73
2021/12/07 10:30:54;;;;;;;22.98;5.75;;;3.30;99.90;;;;;;4995771;28;20068;-74
2021/12/07 10:33:46;;;;;;;24.70;5.68;;;3.30;99.90;;;;;;5013644;28;20390;-74
2021/12/07 10:36:24;;;;;;;24.35;6.60;;;3.30;99.90;;;;;;5013702;28;20125;-74
2021/12/07 10:39:13;;;;;;;16.30;5.50;;;3.30;99.90;;;;;;5013231;28;20128;-74
2021/12/07 10:41:45;;;;;;;25.27;5.55;;;3.40;99.90;;;;;;4996024;28;20084;-74
2021/12/07 10:44:18;;;;;;;24.98;5.75;;;3.50;99.90;;;;;;5013505;28;20038;-74
2021/12/07 10:47:14;;;;;;;26.60;6.35;;;;;;;;;;5013235;28;20057;-73
2021/12/07 10:49:52;;;;;;;22.80;6.72;;;3.80;99.90;;;;;;4996315;28;20153;-73
2021/12/07 10:52:28;;;;;;;22.40;6.63;;;3.90;99.90;;;;;;5013497;28;20397;-73
2021/12/07 10:55:18;;;;;;;17.83;5.53;;;3.80;99.90;;;;;;5012999;28;20054;-74
2021/12/07 10:58:05;;;;;;;22.65;5.75;;;3.90;99.90;;;;;;4995666;28;20569;-74
2021/12/07 11:00:44;;;;;;;18.65;5.60;;;4.00;99.90;;;;;;5013205;28;20049;-74
2021/12/07 11:03:19;;;;;;;17.95;5.35;;;;;;;;;;5012959;28;20056;-74
2021/12/07 11:05:50;;;;;;;19.83;5.47;;;;;;;;;;4995560;28;20395;-73
2021/12/07 11:08:18;;;;;;;17.77;4.80;;;;;;;;;;4995008;28;20060;-74
2021/12/07 11:10:47;;;;;;;15.80;4.43;;;;;;;;;;5012942;28;20057;-74
2021/12/07 11:13:33;;;;;;;23.33;5.38;;;;;;;;;;5013240;28;20054;-74
2021/12/07 11:16:01;;;;;;;25.38;6.40;;;;;;;;;;5012912;28;20050;-73
2021/12/07 11:18:35;;;;;;;20.17;6.07;;;;;;;;;;5012943;28;20475;-74
2021/12/07 11:21:03;;;;;;;24.33;6.80;;;;;;;;;;5012664;28;20058;-74
2021/12/07 11:23:35;;;;;;;16.75;5.55;;;;;;;;;;5012807;28;20134;-74
2021/12/07 11:31:23;;;;;;;16.63;5.05;;;;;;;;;;5013069;28;20060;-74
2021/12/07 11:33:50;;;;;;;19.65;4.28;;;;;;;;;;5012873;28;20042;-74
2021/12/07 11:36:19;;;;;;;15.98;4.82;;;;;;;;;;5015958;28;20049;-74
2021/12/07 11:38:46;;;;;;;22.23;4.90;;;;;;;;;;5016500;28;20054;-74
2021/12/07 11:41:18;;;;;;;19.30;4.57;;;;;;;;;;5016341;28;20050;-74
2021/12/07 11:43:55;;;;;;;20.50;4.47;;;;;;;;;;5016399;28;20092;-74
2021/12/07 11:46:22;;;;;;;28.70;5.82;;;;;;;;;;5016465;28;20053;-74
2021/12/07 11:48:48;;;;;;;17.63;4.45;;;;;;;;;;5016394;28;20132;-74
2021/12/07 11:51:14;;;;;;;20.73;5.20;;;;;;;;;;4998623;28;20553;-74
2021/12/07 11:53:42;;;;;;;19.42;5.25;;;;;;;;;;5016265;28;20050;-74
2021/12/07 11:56:08;;;;;;;19.70;4.80;;;4.90;99.90;;;;;;4998760;28;20112;-74
2021/12/07 11:58:33;;;;;;;16.10;4.10;;;4.80;99.90;;;;;;5016232;28;20050;-74
2021/12/07 12:00:59;;;;;;;18.97;4.47;;;4.90;99.90;;;;;;5015901;28;20048;-74
2021/12/07 12:03:26;;;;;;;19.33;4.57;;;4.90;99.90;;;;;;5016125;28;20046;-74
2021/12/07 12:05:54;;;;;;;15.43;4.10;;;4.90;99.90;;;;;;4998703;28;20153;-74
2021/12/07 12:08:20;;;;;;;17.20;4.78;;;;;;;;;;5016288;28;20061;-74
2021/12/07 12:10:58;;;;;;;14.70;4.07;;;4.90;99.90;;;;;;5015914;28;20056;-74
2021/12/07 12:13:46;;;;;;;17.48;5.15;;;5.00;99.90;;;;;;5016264;28;20054;-73
2021/12/07 12:16:23;;;;;;;15.95;4.22;;;;;;;;;;5015722;28;20057;-74
2021/12/07 12:18:55;;;;;;;19.70;4.55;;;;;;;;;;5015823;28;20119;-74
2021/12/07 12:21:28;;;;;;;17.20;3.95;;;;;;;;;;5015747;28;20497;-74
2021/12/07 12:23:57;;;;;;;16.20;5.10;;;;;;;;;;5015850;28;20145;-74
2021/12/07 12:26:24;;;;;;;27.23;6.40;;;;;;;;;;5015737;28;20054;-74
2021/12/07 12:28:51;;;;;;;14.77;5.13;;;;;;;;;;5015708;28;20403;-74
2021/12/07 12:31:18;;;;;;;17.25;6.00;;;;;;;;;;5015436;28;20436;-74
2021/12/07 12:33:49;;;;;;;14.98;5.05;;;;;;;;;;5015625;28;20421;-74
2021/12/07 12:36:15;;;;;;;23.55;8.77;;;;;;;;;;5015288;28;20119;-74
2021/12/07 12:38:46;;;;;;;29.52;8.27;;;;;;;;;;5015684;28;20057;-74
2021/12/07 12:41:14;;;;;;;23.98;8.70;;;;;;;;;;5015183;28;20118;-74
2021/12/07 12:43:42;;;;;;;28.08;7.97;;;;;;;;;;5015335;28;20115;-74
2021/12/07 12:46:10;;;;;;;19.77;6.25;;;;;;;;;;5014366;28;20072;-74
2021/12/07 12:48:36;;;;;;;19.02;5.32;;;;;;;;;;5015149;28;20041;-74
2021/12/07 12:51:04;;;;;;;23.10;5.55;;;;;;;;;;5015020;28;20060;-74
2021/12/07 12:53:34;;;;;;;18.63;4.97;;;5.40;99.90;;;;;;4997903;28;20054;-74
2021/12/07 12:56:03;;;;;;;19.30;5.00;;;5.30;99.90;;;;;;4997744;28;20054;-75
2021/12/07 12:58:33;;;;;;;20.23;4.70;;;5.20;99.90;;;;;;5015386;28;20446;-74
2021/12/07 13:01:28;;;;;;;29.92;5.50;;;5.20;99.90;;;;;;5014810;28;20057;-74
2021/12/07 13:04:07;;;;;;;17.45;4.82;;;5.20;99.90;;;;;;5014985;28;20056;-74
2021/12/07 13:06:33;;;;;;;21.80;5.75;;;5.20;99.90;;;;;;5014999;28;20058;-73
2021/12/07 13:09:21;;;;;;;23.85;5.25;;;5.20;99.90;;;;;;4997475;28;20088;-75
2021/12/07 13:11:53;;;;;;;17.65;4.53;;;5.20;99.90;;;;;;5014973;28;20070;-74
2021/12/07 13:14:22;;;;;;;18.30;4.55;;;5.20;99.90;;;;;;5014679;28;20050;-74
2021/12/07 13:16:54;;;;;;;17.90;4.47;;;5.20;99.90;;;;;;5014904;28;20115;-74
2021/12/07 13:19:21;;;;;;;15.40;4.88;;;5.20;99.90;;;;;;5014464;28;20057;-74
2021/12/07 13:21:49;;;;;;;22.23;4.50;;;5.30;99.90;;;;;;5014697;28;20057;-74
2021/12/07 13:24:37;;;;;;;17.02;4.57;;;5.30;99.90;;;;;;5014297;28;20034;-74
2021/12/07 13:27:10;;;;;;;14.60;3.95;;;5.30;99.90;;;;;;5013675;28;20513;-75
2021/12/07 13:29:37;;;;;;;16.60;5.35;;;5.30;99.90;;;;;;5015109;28;20097;-74
2021/12/07 13:32:05;;;;;;;22.15;4.07;;;5.30;99.90;;;;;;5014455;28;20133;-74
2021/12/07 13:34:37;;;;;;;17.67;3.90;;;5.30;99.90;;;;;;4997197;28;20042;-74
2021/12/07 13:37:22;;;;;;;19.17;4.25;;;5.20;99.90;;;;;;5014496;28;20049;-74
2021/12/07 13:39:56;;;;;;;14.52;4.35;;;5.20;99.90;;;;;;5014758;28;20129;-74
2021/12/07 13:42:25;;;;;;;19.65;4.80;;;5.20;99.90;;;;;;5014987;28;20073;-74
2021/12/07 13:45:05;;;;;;;17.58;4.60;;;5.20;99.90;;;;;;5014195;28;20081;-74
2021/12/07 13:47:43;;;;;;;20.42;4.72;;;5.20;99.90;;;;;;5014461;28;20057;-74
2021/12/07 13:50:17;;;;;;;15.13;4.57;;;5.20;99.90;;;;;;5013806;28;20046;-74
2021/12/07 13:52:49;;;;;;;16.85;4.10;;;5.20;99.90;;;;;;5014637;28;20042;-74
2021/12/07 13:55:18;;;;;;;12.30;3.75;;;5.20;99.90;;;;;;5013868;28;20049;-74
2021/12/07 13:57:48;;;;;;;12.43;4.80;;;5.10;99.90;;;;;;5014357;28;20037;-75
2021/12/07 14:00:26;;;;;;;16.88;4.30;;;5.10;99.90;;;;;;5013876;28;20053;-74
2021/12/07 14:02:55;;;;;;;11.65;4.00;;;5.10;99.90;;;;;;5014186;28;20054;-74
2021/12/07 14:05:28;;;;;;;13.57;4.30;;;5.10;99.90;;;;;;5013756;28;20042;-74
2021/12/07 14:07:57;;;;;;;17.73;4.43;;;5.10;99.90;;;;;;5014022;28;20097;-74
2021/12/07 14:10:50;;;;;;;20.02;5.30;;;5.00;99.90;;;;;;4996215;28;20049;-74
2021/12/07 14:13:17;;;;;;;17.23;4.90;;;5.00;99.90;;;;;;5013616;28;20057;-74
2021/12/07 14:15:46;;;;;;;18.75;4.80;;;5.00;99.90;;;;;;5013691;28;20057;-74
2021/12/07 14:18:22;;;;;;;14.68;4.50;;;5.00;99.90;;;;;;5013462;28;20045;-74
2021/12/07 14:20:56;;;;;;;;;;;5.00;99.90;;;;;;5014382;28;20136;-74
2021/12/07 14:23:35;;;;;;;15.85;4.40;;;4.90;99.90;;;;;;4995509;28;20392;-74
2021/12/07 14:26:15;;;;;;;16.23;4.72;;;4.90;99.90;;;;;;5013665;28;20041;-74
2021/12/07 14:28:44;;;;;;;20.45;5.82;;;4.90;99.90;;;;;;5013629;28;20049;-74
2021/12/07 14:31:15;;;;;;;18.98;5.07;;;4.90;99.90;;;;;;5013410;28;20410;-74
2021/12/07 14:33:51;;;;;;;19.40;5.05;;;4.80;99.90;;;;;;5013506;28;20155;-74
2021/12/07 14:36:20;;;;;;;13.38;5.15;;;4.80;99.90;;;;;;5013375;28;20049;-74
2021/12/07 14:38:49;;;;;;;20.02;4.72;;;4.80;99.90;;;;;;5013485;28;20058;-74
2021/12/07 14:41:19;;;;;;;16.13;4.95;;;4.80;99.90;;;;;;5013231;28;20061;-74
2021/12/07 14:43:46;;;;;;;18.98;5.28;;;4.70;99.90;;;;;;4996084;28;20100;-74
2021/12/07 14:46:17;;;;;;;15.63;4.82;;;4.70;99.90;;;;;;5013099;28;20054;-74
2021/12/07 14:48:44;;;;;;;19.52;6.05;;;4.70;99.90;;;;;;5013622;28;20052;-74
2021/12/07 14:51:17;;;;;;;20.38;6.50;;;4.60;99.90;;;;;;4995521;28;20379;-75
2021/12/07 14:53:47;;;;;;;21.27;5.50;;;4.60;99.90;;;;;;5013261;28;20054;-73
2021/12/07 14:56:16;;;;;;;22.42;6.75;;;4.50;99.90;;;;;;4995384;28;20057;-74